Colorado AWOS List, Phone Numbers, Maps

USA |  
| Search AWOS

Rocky Mountain States: Montana | Wyoming | Colorado | New Mexico

Complete weather reports: Colorado

Legend: KFNL = METAR available Follow your local AWOS on AV Mobile = METAR available on AV Mobile
Station Colorado Location Frequency Phone
KAKOFAA ID AKO, ASOS, KAKO 202053Z AUTO 18013G20KT 10SM CLR 24/00 A3008 RMK AO2 SLP144 T02440000 56021 Follow KAKO on AV Mobile COLORADO PLAINS REGIONAL 135.475 970-345-2320
KALSFAA ID ALS, ASOS, KALS 202052Z AUTO 19008KT 10SM CLR 19/M02 A3022 RMK AO2 SLP170 T01941017 56024 Follow KALS on AV Mobile SAN LUIS VALLEY REGIONAL 135.175 719-589-5669
KASEFAA ID ASE, ASOS, KASE 202053Z 00000KT 10SM SCT110 18/00 A3020 RMK AO2 SLPNO T01780000 56016 Follow KASE on AV Mobile ASPEN-PITKIN COUNTY AIRPORT 120.400 970-925-9168
KBKFFAA ID BKF, KBKF 201958Z 15014KT 10SM FEW100 24/02 A3010 Follow KBKF on AV Mobile Aurora, Buckley Air Force Base Airport
K7BMFAA ID 7BM, AWOS-3, K7BM 202054Z AUTO 00000KT 10SM SCT047 SCT060 BKN085 13/M01 A3035 RMK AO2 Follow K7BM on AV Mobile Cottonwood Pass 132.050 303-512-4919
KBDUFAA ID BDU, AWOS-3, KBDU 202056Z AUTO 03005KT 10SM CLR 23/04 A3006 RMK AO2 Follow KBDU on AV Mobile Boulder Municipal Airport 118.825 303-541-9540
KAEJFAA ID AEJ, AWOS-3, KAEJ 202035Z AUTO 13009KT 10SM SCT095 17/00 A3024 RMK AO2 T01701001 Follow KAEJ on AV Mobile Central Colorado Regional Airport 132.925 719-395-2599
KITRFAA ID ITR, ASOS, KITR 202053Z AUTO 18014KT 10SM CLR 23/03 A3012 RMK AO2 SLP171 T02330028 56017 Follow KITR on AV Mobile Kit Carson County Airport 135.225 719-346-7036
K1V6FAA ID 1V6, AWOS-3, K1V6 201220Z AUTO 29010KT 10SM CLR 08/01 A3021 RMK AO2 Follow K1V6 on AV Mobile CANON CITY 120.025
KAFFFAA ID AFF, KAFF 201958Z AUTO 15017G20KT 10SM CLR 20/01 A3019 RMK AO2 SLP173 T01980006 Follow KAFF on AV Mobile Air Force Academy
KCOSFAA ID COS, ASOS, KCOS 202054Z 17016KT 10SM FEW110 20/01 A3018 RMK AO2 PK WND 16026/2020 SLP172 T02000011 56017 Follow KCOS on AV Mobile COLORADO SPRINGS MUNI 125.000 719-637-9696
KFLYFAA ID FLY, AWOS-3PT, KFLY 202054Z AUTO 16013G20KT 10SM CLR 19/00 A3022 RMK AO2 T01920000 Follow KFLY on AV Mobile Meadowlake Airport, Peyton, CO 118.450 719-683-5371
KCCUFAA ID CCU, AWOS-3, KCCU 202057Z AUTO 18010KT 10SM BKN065 11/M05 A3046 RMK AO2 Follow KCCU on AV Mobile Copper Mountain, Red Cliff Pass 118.075 970-968-1715
KCEZFAA ID CEZ, ASOS, KCEZ 202053Z AUTO 14006KT 10SM FEW080 21/04 A3013 RMK AO2 SLP153 T02060044 56023 Follow KCEZ on AV Mobile CORTEZ MONTEZUMA COUNTY AIRPORT 135.625 970-564-0193
KCAGFAA ID CAG, ASOS, KCAG 202053Z AUTO 25006KT 10SM FEW080 BKN100 22/02 A3013 RMK AO2 SLP167 T02170022 56020 Follow KCAG on AV Mobile CRAIG MOFFAT AIRPORT 135.425 970-824-2373
KAJZFAA ID AJZ, AWOS-3, KAJZ 202035Z AUTO 03003KT 10SM SCT120 25/02 A3009 RMK AO2 T02500021 Follow KAJZ on AV Mobile Blake Field Airport 134.000 970-874-3251
KDNRICAO ID KDNR Denver / Stapleton International, Co.
KAPAFAA ID APA, ASOS, KAPA 202053Z 16019G25KT 10SM FEW100 FEW140 22/02 A3009 RMK AO2 SLP141 TCU DSNT W-NW T02220017 56022 Follow KAPA on AV Mobile DENVER CENTENNIAL AIRPORT 120.300 303-706-9098
KDENFAA ID DEN, ASOS, KDEN 202053Z 17012G19KT 10SM FEW120 25/01 A3007 RMK AO2 SLP119 T02500006 56023 Follow KDEN on AV Mobile DENVER INTERNATIONAL AIRPORT 125.600 303-342-0838
KFTGFAA ID FTG, AWOS-3, KFTG 201850Z 17014G22KT 50SM FEW180 24/01 A3014 Follow KFTG on AV Mobile Front Range Airport 119.025 303-261-9104
KBJCFAA ID BJC, AWOS-3, KBJC 201946Z 36006KT 50SM FEW060 24/04 A3010 Follow KBJC on AV Mobile Rocky Mountain Metro Airport 126.250 720-887-8067
K4V5ICAO ID K4V5 Durango Aviation Weather Reporting Station
KDROFAA ID DRO, ASOS, KDRO 202053Z AUTO 22003KT 10SM CLR 19/04 A3018 RMK AO2 SLP168 T01890039 PWINO Follow KDRO on AV Mobile DURANGO-LA PLATA COUNTY AIRPORT 120.625 970-259-3579
KEGEFAA ID EGE, AWOS-3, KEGE 202050Z 34005KT 10SM SCT120 20/02 A3016 Follow KEGE on AV Mobile Eagle County Regional 135.575 970-524-7386
CO90FAA ID CO90, ASOS, KAEJ 202105Z AUTO 14010G16KT 10SM SCT100 18/M01 A3023 RMK AO2 T01781006 Follow  on AV Mobile USAF Academy Bullseye Aux Airstrip 118.325 719-683-3346
K0COFAA ID 0CO, AWOS-3, K0CO 202050Z AUTO 32007G15KT 280V020 10SM SCT040 SCT055 SCT065 03/02 A3049 RMK AO2 Follow K0CO on AV Mobile EMPIRE 134.325
KEIKFAA ID EIK, AWOS-3, KEIK 202055Z AUTO 00000KT 10SM CLR 25/03 A3005 RMK AO2 T02450025 Follow KEIK on AV Mobile Erie Municipal Airport 133.825 303-604-4339
KFCSFAA ID FCS, KFCS 201958Z AUTO 14014G19KT 10SM CLR 21/03 A3017 RMK AO2 SLP186 T02090025 Follow KFCS on AV Mobile Fort Carson
KFCLICAO ID KFCL Fort Collins Supplementary Aviation Weather Reporting Station
KFNLFAA ID FNL, AWOS-3, KFNL 202055Z AUTO 29006KT 10SM CLR 22/05 A3007 RMK AO1 57027 Follow KFNL on AV Mobile Fort Collins/Loveland, Fort Collins-Loveland Municipal Airport 135.075 970-669-9187
KFMMFAA ID FMM, AWOS-3, KFMM 202035Z AUTO 16015G21KT 10SM CLR 26/01 A3006 RMK AO2 T02610010 Follow KFMM on AV Mobile Fort Morgan Municipal Airport 132.950 970-867-4823
KGNBFAA ID GNB, AWOS-1 Granby-Grand County Airport 119.925 970-887-1803
KGJTFAA ID GJT, ASOS, KGJT 202053Z 31006KT 10SM CLR 22/06 A3008 RMK AO2 SLP138 T02170056 56024 Follow KGJT on AV Mobile GRAND JUNCTION WALKER FIELD 118.550 970-245-7881
KGXYFAA ID GXY, AWOS-3, KGXY 202055Z AUTO 22007KT 10SM CLR 26/03 A3004 RMK AO1 57037 Follow KGXY on AV Mobile Greeley, Greeley-Weld County Airport 135.175 970-352-3511
K2V9ICAO ID K2V9 Gunnison Aviation Weather Reporting Station
KGUCFAA ID GUC, AWOS-3, KGUC 202055Z AUTO 10007KT 10SM CLR 19/00 A3023 RMK AO1 57030 Follow KGUC on AV Mobile Gunnison, Gunnison-Crested Butte Regional Airport 135.075 970-641-3240
KHDNFAA ID HDN, AWOS-3, KHDN 202055Z AUTO 32006KT 10SM OVC120 19/02 A3015 RMK AO1 57020 Follow KHDN on AV Mobile Hayden, Yampa Valley Airport 119.275 970-276-3690
KHEQFAA ID HEQ, AWOS-3, KHEQ 202055Z AUTO 18010G17KT 10SM CLR 27/02 A3006 RMK AO2 Follow KHEQ on AV Mobile Holyoke Airport 119.275 970-854-3679
K20VFAA ID 20V, AWOS-3, K20V 202054Z AUTO 25012KT 10SM CLR 21/M05 RMK AO2 Follow K20V on AV Mobile Kremmling, Mc Elroy Airfield 118.425 970-724-9659
KLHXFAA ID LHX, ASOS, KLHX 202053Z AUTO 14010KT 10SM CLR 24/05 A3011 RMK AO2 SLP156 T02390050 56022 Follow KLHX on AV Mobile LA JUNTA MUNICIPAL AIRPORT 135.525 719-384-5961
KVTPFAA ID VTP, AWOS-3, KVTP 202031Z AUTO 03006KT 10SM BKN070 OVC085 10/00 A3039 RMK AO2 Follow KVTP on AV Mobile La Veta Mountain, La Veta Pass 119.925 719-587-3120
KLAAFAA ID LAA, ASOS, KLAA 202053Z AUTO 16009KT 10SM CLR 24/07 A3009 RMK AO2 SLP160 T02440072 56019 Follow KLAA on AV Mobile LAMAR MUNICIPAL AIRPORT 135.625 719-336-3854
KLXVFAA ID LXV, ASOS, KLXV 202053Z AUTO 20010KT 10SM BKN080 OVC095 12/M03 A3032 RMK AO2 SLP149 T01171033 56016 Follow KLXV on AV Mobile LEADVILLE LAKE CO 118.375 719-486-2735
KLICFAA ID LIC, ASOS, KLIC 202055Z AUTO 17016G23KT 10SM -RA CLR 21/M02 A3015 RMK AO2 RAB04 SLP167 P0000 60000 T02111017 56018 Follow KLIC on AV Mobile LIMON MUNICIPAL AIRPORT 121.125 719-775-0515
KLMOFAA ID LMO, AWOS-3, KLMO 202053Z AUTO 01003KT 10SM CLR 25/05 A3006 RMK AO2 T02500048 Follow KLMO on AV Mobile Vance Brand Airport 120.000 303-684-7545
KEEOFAA ID EEO, ASOS, KEEO 202053Z AUTO 23009KT 10SM BKN110 21/02 A3013 RMK AO2 SLP144 T02110017 56012 Follow KEEO on AV Mobile MEEKER AIRPORT 135.525 970-878-5036
KMYPFAA ID MYP, AWOS-3, KMYP 202057Z AUTO 22016KT 10SM SCT050 BKN075 06/M01 A3056 RMK AO2 Follow KMYP on AV Mobile Salida Mountain, Monarch Pass 124.175 719-539-4436
KMTJFAA ID MTJ, ASOS, KMTJ 202053Z AUTO 36008KT 10SM FEW120 23/02 A3012 RMK AO2 SLP140 T02280017 56025 Follow KMTJ on AV Mobile MONTROSE REGIONAL AIRPORT 135.225 970-249-1534
KMNHFAA ID MNH, AWOS-3, KMNH 202052Z AUTO 16016G23KT 10SM CLR 18/00 A3019 RMK AO2 Follow KMNH on AV Mobile Elbert Mountain, Monument Pass 134.375 303-648-3479
K3MWFAA ID 3MW, AWOS-3, K3MW 211630Z AUTO RMK AO2 TSNO PWINO Follow K3MW on AV Mobile Mount Werner 127.125 970-871-5640
KCRVICAO ID KCRV Nederland Mountain, Corona Pass
KAIBFAA ID AIB, AWOS-3, KAIB 202055Z AUTO 00000KT 10SM CLR 21/02 A3016 RMK AO2 Follow KAIB on AV Mobile Hopkins Field Airport 132.525 970-864-2325
KPSOFAA ID PSO, AWOS-3, KPSO 202055Z AUTO 23006KT 10SM SCT100 18/00 A3024 RMK AO2 T01780003 Follow KPSO on AV Mobile Stevens Field Airport 127.175 970-731-0365
KPEFICAO ID KPEF Peterson Air Force Base
KPUXICAO ID KPUX Pueblo NEXRAD
KPUBFAA ID PUB, ASOS, KPUB 202053Z 11013G21KT 10SM CLR 24/02 A3010 RMK AO2 SLP153 T02390022 56024 Follow KPUB on AV Mobile PUEBLO MEMORIAL AIRPORT 125.250 719-948-2803
K1V1ICAO ID K1V1 Rifle Aviation Weather Reporting Station
KRILFAA ID RIL, ASOS, KRIL 202053Z AUTO VRB03KT 10SM FEW110 21/03 A3011 RMK AO2 SLP153 T02110033 56024 Follow KRIL on AV Mobile RIFLE GARFIELD COUNTY RGNL 135.275 970-625-2206
K04VFAA ID 04V, AWOS-3, K04V 202050Z AUTO 21006G14KT 10SM SCT100 18/00 A3026 RMK AO2 Follow K04V on AV Mobile Saguache, Saguache Municipal Airport 118.625 719-655-2229
KS29ICAO ID KS29 Salida
KANKFAA ID ANK, AWOS-3, KANK 202035Z AUTO 14003KT 10SM SCT075 SCT100 20/00 A3028 RMK AO1 T01991001 Follow KANK on AV Mobile Harriet Alexander Field Airport 133.850 719-539-5268
KSPDICAO ID KSPD, KSPD 202056Z AUTO 13012G17KT 22/07 A3013 RMK AO1 SLP162 T02220067 56014 Follow KSPD on AV Mobile SPRINGFIELD COMANCHE NATL
KSBSFAA ID SBS, AWOS-3, KSBS 202054Z AUTO 24004KT 10SM BKN095 18/01 A3016 RMK AO1 T01830013 Follow KSBS on AV Mobile Steamboat Springs 118.325 970-879-7794
KSTKFAA ID STK, AWOS-3, KSTK 202055Z AUTO 18012G16KT 10SM CLR 28/02 A3003 RMK AO2 Follow KSTK on AV Mobile Sterling Municipal Airport 118.525 970-526-3009
K5SMFAA ID 5SM, AWOS-3, K5SM 202057Z AUTO 29004KT 10SM SCT046 BKN050 OVC065 11/02 A3041 RMK AO2 Follow K5SM on AV Mobile Sunlight 126.075 970-384-3380
KTEXFAA ID TEX, AWOS-3, KTEX 202055Z AUTO 15006KT 10SM BKN090 15/M02 A3030 RMK AO2 T01531022 Follow KTEX on AV Mobile Telluride, Telluride Regional Airport 118.325 970-728-1534
KTADFAA ID TAD, ASOS, KTAD 202054Z AUTO 12011KT 10SM CLR 22/01 A3015 RMK AO2 SLP151 T02220011 56023 Follow KTAD on AV Mobile Trinidad, Perry Stokes Airport 119.025 719-845-1156
K33VFAA ID 33V, AWOS-3, K33V 202054Z AUTO 22008KT 10SM SCT070 SCT090 18/M02 A3021 RMK AO2 Follow K33V on AV Mobile WALDEN 118.625 970-723-4513
4V1FAA ID 4V1, AWOS-3, KAEJ 202105Z AUTO 14010G16KT 10SM SCT100 18/M01 A3023 RMK AO2 T01781006 Follow  on AV Mobile Spanish Peaks Airfield 123.600 719-738-1053
K4BMFAA ID 4BM, AWOS-3, K4BM 260156Z AUTO 20008KT 7SM RA SCT035 SCT055 BKN090 08/03 A3056 RMK AO2 Follow K4BM on AV Mobile Wilkerson Pass 132.3 303-512-4418
KC96ICAO ID KC96 Winter Park Resort
KCPWFAA ID CPW, AWOS-3, KCPW 202052Z AUTO 21011G15KT 10SM SCT048 BKN060 BKN075 03/M01 A3046 RMK AO2 LTG DSNT SE Follow KCPW on AV Mobile Pagosa Springs, Wolf Creek Pass 121.125 970-264-2180
K2V5FAA ID 2V5, AWOS-3, K2V5 202055Z AUTO 15012G18KT 10SM CLR 27/01 A3007 RMK AO2 T02680010 Follow K2V5 on AV Mobile Wray Municipal Airport 118.250 970-332-5930

Click on the AV Mobile icon AV Mobile icon by any station to follow that AWOS feed on AirportView.net Mobile.

Legend: Commercial service airport with AWOS Commercial Airport AWOSNon-Commercial service airport with AWOS Non-Commercial Airport AWOS
Airport AWOS - Click symbol for weather report Fort Morgan Municipal Airport KFMM 202035Z AUTO 16015G21KT 10SM CLR 26/01 A3006 RMK AO2 T02610010 Hopkins Field Airport KAIB 202055Z AUTO 00000KT 10SM CLR 21/02 A3016 RMK AO2 Telluride, Telluride Regional Airport KTEX 202055Z AUTO 15006KT 10SM BKN090 15/M02 A3030 RMK AO2 T01531022 Greeley, Greeley-Weld County Airport KGXY 202055Z AUTO 22007KT 10SM CLR 26/03 A3004 RMK AO1 57037 Front Range Airport KFTG 201850Z 17014G22KT 50SM FEW180 24/01 A3014 Rocky Mountain Metro Airport KBJC 201946Z 36006KT 50SM FEW060 24/04 A3010 DENVER CENTENNIAL AIRPORT KAPA 202053Z 16019G25KT 10SM FEW100 FEW140 22/02 A3009 RMK AO2 SLP141 TCU DSNT W-NW T02220017 56022 DENVER INTERNATIONAL AIRPORT KDEN 202053Z 17012G19KT 10SM FEW120 25/01 A3007 RMK AO2 SLP119 T02500006 56023 Fort Collins/Loveland, Fort Collins-Loveland Municipal Airport KFNL 202055Z AUTO 29006KT 10SM CLR 22/05 A3007 RMK AO1 57027 Boulder Municipal Airport KBDU 202056Z AUTO 03005KT 10SM CLR 23/04 A3006 RMK AO2 Vance Brand Airport KLMO 202053Z AUTO 01003KT 10SM CLR 25/05 A3006 RMK AO2 T02500048 Sterling Municipal Airport KSTK 202055Z AUTO 18012G16KT 10SM CLR 28/02 A3003 RMK AO2 Holyoke Airport KHEQ 202055Z AUTO 18010G17KT 10SM CLR 27/02 A3006 RMK AO2 COLORADO PLAINS REGIONAL KAKO 202053Z AUTO 18013G20KT 10SM CLR 24/00 A3008 RMK AO2 SLP144 T02440000 56021 Kit Carson County Airport KITR 202053Z AUTO 18014KT 10SM CLR 23/03 A3012 RMK AO2 SLP171 T02330028 56017 LIMON MUNICIPAL AIRPORT KLIC 202055Z AUTO 17016G23KT 10SM -RA CLR 21/M02 A3015 RMK AO2 RAB04 SLP167 P0000 60000 T02111017 56018 COLORADO SPRINGS MUNI KCOS 202054Z 17016KT 10SM FEW110 20/01 A3018 RMK AO2 PK WND 16026/2020 SLP172 T02000011 56017 LAMAR MUNICIPAL AIRPORT KLAA 202053Z AUTO 16009KT 10SM CLR 24/07 A3009 RMK AO2 SLP160 T02440072 56019 LA JUNTA MUNICIPAL AIRPORT KLHX 202053Z AUTO 14010KT 10SM CLR 24/05 A3011 RMK AO2 SLP156 T02390050 56022 Trinidad, Perry Stokes Airport KTAD 202054Z AUTO 12011KT 10SM CLR 22/01 A3015 RMK AO2 SLP151 T02220011 56023 PUEBLO MEMORIAL AIRPORT KPUB 202053Z 11013G21KT 10SM CLR 24/02 A3010 RMK AO2 SLP153 T02390022 56024 CANON CITY 1V6 SAN LUIS VALLEY REGIONAL KALS 202052Z AUTO 19008KT 10SM CLR 19/M02 A3022 RMK AO2 SLP170 T01941017 56024 Saguache, Saguache Municipal Airport K04V 202050Z AUTO 21006G14KT 10SM SCT100 18/00 A3026 RMK AO2 Granby-Grand County Airport KGNB WALDEN 33V Steamboat Springs KSBS 202054Z AUTO 24004KT 10SM BKN095 18/01 A3016 RMK AO1 T01830013 Hayden, Yampa Valley Airport KHDN 202055Z AUTO 32006KT 10SM OVC120 19/02 A3015 RMK AO1 57020 Kremmling, Mc Elroy Airfield K20V 202054Z AUTO 25012KT 10SM CLR 21/M05 RMK AO2 LEADVILLE LAKE CO KLXV 202053Z AUTO 20010KT 10SM BKN080 OVC095 12/M03 A3032 RMK AO2 SLP149 T01171033 56016 Eagle County Regional KEGE 202050Z 34005KT 10SM SCT120 20/02 A3016 CRAIG MOFFAT AIRPORT KCAG 202053Z AUTO 25006KT 10SM FEW080 BKN100 22/02 A3013 RMK AO2 SLP167 T02170022 56020 MEEKER AIRPORT KEEO 202053Z AUTO 23009KT 10SM BKN110 21/02 A3013 RMK AO2 SLP144 T02110017 56012 ASPEN-PITKIN COUNTY AIRPORT KASE 202053Z 00000KT 10SM SCT110 18/00 A3020 RMK AO2 SLPNO T01780000 56016 Gunnison, Gunnison-Crested Butte Regional Airport KGUC 202055Z AUTO 10007KT 10SM CLR 19/00 A3023 RMK AO1 57030 DURANGO-LA PLATA COUNTY AIRPORT  KDRO 202053Z AUTO 22003KT 10SM CLR 19/04 A3018 RMK AO2 SLP168 T01890039 PWINO Stevens Field Airport KPSO 202055Z AUTO 23006KT 10SM SCT100 18/00 A3024 RMK AO2 T01780003 CORTEZ MONTEZUMA COUNTY AIRPORT  KCEZ 202053Z AUTO 14006KT 10SM FEW080 21/04 A3013 RMK AO2 SLP153 T02060044 56023 MONTROSE REGIONAL AIRPORT KMTJ 202053Z AUTO 36008KT 10SM FEW120 23/02 A3012 RMK AO2 SLP140 T02280017 56025 RIFLE GARFIELD COUNTY RGNL KRIL 202053Z AUTO VRB03KT 10SM FEW110 21/03 A3011 RMK AO2 SLP153 T02110033 56024 GRAND JUNCTION WALKER FIELD KGJT 202053Z 31006KT 10SM CLR 22/06 A3008 RMK AO2 SLP138 T02170056 56024 Blake Field Airport KAJZ 202035Z AUTO 03003KT 10SM SCT120 25/02 A3009 RMK AO2 T02500021 Central Colorado Regional Airport KAEJ 202035Z AUTO 13009KT 10SM SCT095 17/00 A3024 RMK AO2 T01701001 Harriet Alexander Field Airport KANK 202035Z AUTO 14003KT 10SM SCT075 SCT100 20/00 A3028 RMK AO1 T01991001 Erie Municipal Airport KEIK 202055Z AUTO 00000KT 10SM CLR 25/03 A3005 RMK AO2 T02450025 Wray Municipal Airport K2V5 202055Z AUTO 15012G18KT 10SM CLR 27/01 A3007 RMK AO2 T02680010
Legend: High Mountain AWOS Mountain Pass AWOS
Mountain Pass AWOS - Click symbol for weather report Pagosa Springs, Wolf Creek Pass KCPW 202052Z AUTO 21011G15KT 10SM SCT048 BKN060 BKN075 03/M01 A3046 RMK AO2 LTG DSNT SE Saguache, Saguache Municipal Airport K04V 202050Z AUTO 21006G14KT 10SM SCT100 18/00 A3026 RMK AO2 Kremmling, Mc Elroy Airfield K20V 202054Z AUTO 25012KT 10SM CLR 21/M05 RMK AO2 La Veta Mountain, La Veta Pass KVTP 202031Z AUTO 03006KT 10SM BKN070 OVC085 10/00 A3039 RMK AO2 Salida Mountain, Monarch Pass KMYP 202057Z AUTO 22016KT 10SM SCT050 BKN075 06/M01 A3056 RMK AO2 Cottonwood Pass K7BM 202054Z AUTO 00000KT 10SM SCT047 SCT060 BKN085 13/M01 A3035 RMK AO2 Elbert Mountain, Monument Pass KMNH 202052Z AUTO 16016G23KT 10SM CLR 18/00 A3019 RMK AO2 Wilkerson Pass K4BM 260156Z AUTO 20008KT 7SM RA SCT035 SCT055 BKN090 08/03 A3056 RMK AO2 Copper Mountain, Red Cliff Pass KCCU 202057Z AUTO 18010KT 10SM BKN065 11/M05 A3046 RMK AO2 EMPIRE 0CO Sunlight K5SM 202057Z AUTO 29004KT 10SM SCT046 BKN050 OVC065 11/02 A3041 RMK AO2 Mount Werner K3MW 211630Z AUTO RMK AO2 TSNO PWINO
Garmin aera 796 $1999 at Avionics Specialists LLC
Bose A20 Aviation Headsets $995 at Avionics Specialists LLC